Time;durP1;ratioP1;P1;durP2;ratioP2;P2;SDS_P1;SDS_P2;PMS_P1;PMS_P2;Temp;Humidity;BMP_temperature;BMP_pressure;BME280_temperature;BME280_humidity;BME280_pressure;Samples;Min_cycle;Max_cycle;Signal;HPM_P1;HPM_P2
2022/10/09 00:01:39;;;;;;;0.10;0.10;;;;;;;;;;6188205;23;20020;-90
2022/10/09 00:04:05;;;;;;;0.10;0.10;;;;;;;;;;6188323;23;20442;-90
2022/10/09 00:06:32;;;;;;;0.10;0.10;;;;;;;;;;6187719;23;20377;-90
2022/10/09 00:08:58;;;;;;;0.10;0.10;;;;;;;;;;6187924;23;20070;-91
2022/10/09 00:11:25;;;;;;;0.10;0.10;;;;;;;;;;6187806;23;20013;-91
2022/10/09 00:13:51;;;;;;;0.10;0.10;;;;;;;;;;6187872;23;20015;-90
2022/10/09 00:16:17;;;;;;;0.10;0.10;;;;;;;;;;6187916;23;20331;-91
2022/10/09 00:18:43;;;;;;;0.10;0.10;;;;;;;;;;6188062;23;20009;-90
2022/10/09 00:21:28;;;;;;;0.10;0.10;;;;;;;;;;6187630;23;20532;-91
2022/10/09 00:23:55;;;;;;;0.10;0.10;;;;;;;;;;6188223;23;20013;-90
2022/10/09 00:26:21;;;;;;;0.10;0.10;;;;;;;;;;6188100;23;20068;-90
2022/10/09 00:28:47;;;;;;;0.10;0.10;;;;;;;;;;6212560;23;20349;-91
2022/10/09 00:31:14;;;;;;;0.10;0.10;;;;;;;;;;6189720;23;20035;-90
2022/10/09 00:33:40;;;;;;;0.10;0.10;;;;;;;;;;6189670;23;20016;-90
2022/10/09 00:36:10;;;;;;;0.10;0.10;;;;;;;;;;6190127;23;20044;-90
2022/10/09 00:38:36;;;;;;;0.10;0.10;;;;;;;;;;6189578;23;20016;-90
2022/10/09 00:41:02;;;;;;;0.10;0.10;;;;;;;;;;6189294;23;20012;-90
2022/10/09 00:43:42;;;;;;;0.10;0.10;;;;;;;;;;6189452;23;20404;-89
2022/10/09 00:46:12;;;;;;;0.10;0.10;;;;;;;;;;6189292;23;20350;-91
2022/10/09 00:48:38;;;;;;;0.10;0.10;;;;;;;;;;6189772;23;20156;-91
2022/10/09 00:51:05;;;;;;;0.10;0.10;;;;;;;;;;6214394;23;20377;-90
2022/10/09 00:53:30;;;;;;;0.10;0.10;;;;;;;;;;6189709;23;20032;-91
2022/10/09 00:55:56;;;;;;;0.10;0.10;;;;;;;;;;6189508;23;20017;-91
2022/10/09 00:58:23;;;;;;;0.10;0.10;;;;;;;;;;6189277;23;20013;-91
2022/10/09 01:00:50;;;;;;;0.20;0.20;;;;;;;;;;6189327;23;20096;-91
2022/10/09 01:03:16;;;;;;;0.10;0.10;;;;;;;;;;6189809;23;20083;-92
2022/10/09 01:06:09;;;;;;;0.10;0.10;;;;;;;;;;6189987;23;20028;-91
2022/10/09 01:08:35;;;;;;;0.10;0.10;;;;;;;;;;6185103;23;20012;-90
2022/10/09 01:11:24;;;;;;;0.10;0.10;;;;;;;;;;6213788;23;20019;-89
2022/10/09 01:14:13;;;;;;;0.10;0.10;;;;;;;;;;6147717;23;20013;-89
2022/10/09 01:16:41;;;;;;;0.10;0.10;;;;;;;;;;6189193;23;20009;-89
2022/10/09 01:19:26;;;;;;;0.10;0.10;;;;;;;;;;6188982;23;20013;-89
2022/10/09 01:21:52;;;;;;;0.10;0.10;;;;;;;;;;6213727;23;20016;-89
2022/10/09 01:24:28;;;;;;;0.10;0.10;;;;;;;;;;6189114;23;20017;-89
2022/10/09 01:26:59;;;;;;;0.10;0.10;;;;;;;;;;6189426;23;20155;-89
2022/10/09 01:29:26;;;;;;;0.10;0.10;;;;;;;;;;6188800;23;20035;-89
2022/10/09 01:31:52;;;;;;;0.10;0.10;;;;;;;;;;6189023;23;20017;-89
2022/10/09 01:34:18;;;;;;;0.10;0.10;;;;;;;;;;6188904;23;20015;-89
2022/10/09 01:36:44;;;;;;;0.10;0.10;;;;;;;;;;6188948;23;20013;-89
2022/10/09 01:39:15;;;;;;;0.10;0.10;;;;;;;;;;6188788;23;20385;-89
2022/10/09 01:41:42;;;;;;;0.10;0.10;;;;;;;;;;6188596;23;20017;-90
2022/10/09 01:44:18;;;;;;;0.10;0.10;;;;;;;;;;6189309;23;20024;-90
2022/10/09 01:46:44;;;;;;;0.10;0.10;;;;;;;;;;6188402;23;20021;-90
2022/10/09 01:49:20;;;;;;;0.10;0.10;;;;;;;;;;6189161;23;20243;-90
2022/10/09 01:52:09;;;;;;;0.10;0.10;;;;;;;;;;6188919;23;20014;-90
2022/10/09 01:54:54;;;;;;;0.10;0.10;;;;;;;;;;6158956;23;20016;-91
2022/10/09 01:57:24;;;;;;;0.10;0.10;;;;;;;;;;6213724;23;20009;-89
2022/10/09 01:59:50;;;;;;;0.10;0.10;;;;;;;;;;6213670;23;20070;-89
2022/10/09 02:02:16;;;;;;;0.10;0.10;;;;;;;;;;6188672;23;20012;-89
2022/10/09 02:04:42;;;;;;;0.10;0.10;;;;;;;;;;6188551;23;20017;-89
2022/10/09 02:07:08;;;;;;;0.10;0.10;;;;;;;;;;6188365;23;20013;-90
2022/10/09 02:09:35;;;;;;;0.10;0.10;;;;;;;;;;6188676;23;20358;-90
2022/10/09 02:12:03;;;;;;;0.10;0.10;;;;;;;;;;6213275;23;20059;-90
2022/10/09 02:14:29;;;;;;;0.10;0.10;;;;;;;;;;6188624;23;20012;-90
2022/10/09 02:17:02;;;;;;;0.10;0.10;;;;;;;;;;6188449;23;20015;-89
2022/10/09 02:19:33;;;;;;;0.10;0.10;;;;;;;;;;6188326;23;20071;-89
2022/10/09 02:22:00;;;;;;;0.10;0.10;;;;;;;;;;6188378;23;20305;-90
2022/10/09 02:24:26;;;;;;;0.10;0.10;;;;;;;;;;6188530;23;20396;-90
2022/10/09 02:26:52;;;;;;;0.10;0.10;;;;;;;;;;6188937;23;20016;-89
2022/10/09 02:29:18;;;;;;;0.10;0.10;;;;;;;;;;6188257;23;20012;-90
2022/10/09 02:31:44;;;;;;;0.10;0.10;;;;;;;;;;6188152;23;20457;-90
2022/10/09 02:34:11;;;;;;;0.10;0.10;;;;;;;;;;6188262;23;20008;-91
2022/10/09 02:36:38;;;;;;;0.10;0.10;;;;;;;;;;6188446;23;20016;-90
2022/10/09 02:39:04;;;;;;;0.10;0.10;;;;;;;;;;6188715;23;20051;-90
2022/10/09 02:41:30;;;;;;;0.13;0.13;;;;;;;;;;6188134;23;20503;-91
2022/10/09 02:43:56;;;;;;;0.10;0.10;;;;;;;;;;6188370;23;20023;-90
2022/10/09 02:46:22;;;;;;;0.10;0.10;;;;;;;;;;6188366;23;20016;-91
2022/10/09 02:48:48;;;;;;;0.10;0.10;;;;;;;;;;6188287;23;20018;-91
2022/10/09 02:51:14;;;;;;;0.10;0.10;;;;;;;;;;6188023;23;20095;-90
2022/10/09 02:53:40;;;;;;;0.10;0.10;;;;;;;;;;6188186;23;20048;-90
2022/10/09 02:56:06;;;;;;;0.10;0.10;;;;;;;;;;6188695;23;20461;-90
2022/10/09 02:58:33;;;;;;;0.10;0.10;;;;;;;;;;6187940;23;20008;-90
2022/10/09 03:00:59;;;;;;;0.10;0.10;;;;;;;;;;6188096;23;20520;-90
2022/10/09 03:03:25;;;;;;;0.10;0.10;;;;;;;;;;6188066;23;20035;-89
2022/10/09 03:06:01;;;;;;;0.10;0.10;;;;;;;;;;6188244;23;20016;-91
2022/10/09 03:08:27;;;;;;;0.10;0.10;;;;;;;;;;6212980;23;20354;-91
2022/10/09 03:10:53;;;;;;;0.10;0.10;;;;;;;;;;6188308;23;20020;-90
2022/10/09 03:13:20;;;;;;;0.10;0.10;;;;;;;;;;6187951;23;20009;-92
2022/10/09 03:15:46;;;;;;;0.10;0.10;;;;;;;;;;6213012;23;20019;-91
2022/10/09 03:18:12;;;;;;;0.10;0.10;;;;;;;;;;6188285;23;20009;-90
2022/10/09 03:20:38;;;;;;;0.10;0.10;;;;;;;;;;6187640;23;20019;-90
2022/10/09 03:23:04;;;;;;;0.10;0.10;;;;;;;;;;6187896;23;20450;-90
2022/10/09 03:25:30;;;;;;;0.10;0.10;;;;;;;;;;6187900;23;20024;-91
2022/10/09 03:27:56;;;;;;;0.10;0.10;;;;;;;;;;6187802;23;20066;-90
2022/10/09 03:30:22;;;;;;;0.10;0.10;;;;;;;;;;6188796;23;20012;-90
2022/10/09 03:32:48;;;;;;;0.10;0.10;;;;;;;;;;6188840;23;20016;-92
2022/10/09 03:35:14;;;;;;;0.10;0.10;;;;;;;;;;6190434;23;20009;-92
2022/10/09 03:37:40;;;;;;;0.10;0.10;;;;;;;;;;6188988;23;20040;-92
2022/10/09 03:40:06;;;;;;;0.10;0.10;;;;;;;;;;6188710;23;20013;-92
2022/10/09 03:42:32;;;;;;;0.10;0.10;;;;;;;;;;6188387;23;20009;-90
2022/10/09 03:45:02;;;;;;;0.10;0.10;;;;;;;;;;6187721;23;20083;-90
2022/10/09 03:47:28;;;;;;;0.10;0.10;;;;;;;;;;6188695;23;20017;-90
2022/10/09 03:49:54;;;;;;;0.10;0.10;;;;;;;;;;6187611;23;20054;-90
2022/10/09 03:52:20;;;;;;;0.10;0.10;;;;;;;;;;6187740;23;20407;-90
2022/10/09 03:54:46;;;;;;;0.10;0.10;;;;;;;;;;6187938;23;20024;-90
2022/10/09 03:57:12;;;;;;;0.10;0.10;;;;;;;;;;6188202;23;20013;-90
2022/10/09 03:59:38;;;;;;;0.10;0.10;;;;;;;;;;6187833;23;20469;-92
2022/10/09 04:02:04;;;;;;;0.10;0.10;;;;;;;;;;6187873;23;20091;-91
2022/10/09 04:04:30;;;;;;;0.10;0.10;;;;;;;;;;6189840;23;20051;-91
2022/10/09 04:06:56;;;;;;;0.10;0.10;;;;;;;;;;6189974;23;20069;-91
2022/10/09 04:09:22;;;;;;;0.10;0.10;;;;;;;;;;6190054;23;20319;-91
2022/10/09 04:11:48;;;;;;;0.10;0.10;;;;;;;;;;6189805;23;20024;-91
2022/10/09 04:14:14;;;;;;;0.03;0.03;;;;;;;;;;6189741;23;20009;-91
2022/10/09 04:16:40;;;;;;;0.10;0.10;;;;;;;;;;6189112;23;20016;-90
2022/10/09 04:19:06;;;;;;;0.10;0.10;;;;;;;;;;6189813;23;20012;-90
2022/10/09 04:21:32;;;;;;;0.10;0.10;;;;;;;;;;6189730;23;20342;-90
2022/10/09 04:23:58;;;;;;;0.10;0.10;;;;;;;;;;6190281;23;20023;-90
2022/10/09 04:26:25;;;;;;;0.10;0.10;;;;;;;;;;6189997;23;20019;-91
2022/10/09 04:28:51;;;;;;;0.10;0.10;;;;;;;;;;6214785;23;20020;-90
2022/10/09 04:31:17;;;;;;;0.10;0.10;;;;;;;;;;6189591;23;20020;-90
2022/10/09 04:33:43;;;;;;;0.10;0.10;;;;;;;;;;6189911;23;20024;-91
2022/10/09 04:36:09;;;;;;;0.10;0.10;;;;;;;;;;6214624;23;20009;-91
2022/10/09 04:38:35;;;;;;;0.10;0.10;;;;;;;;;;6189490;23;20019;-90
2022/10/09 04:41:02;;;;;;;0.10;0.10;;;;;;;;;;6189462;23;20065;-91
2022/10/09 04:43:28;;;;;;;0.10;0.10;;;;;;;;;;6189603;23;20019;-90
2022/10/09 04:45:54;;;;;;;0.10;0.10;;;;;;;;;;6189477;23;20070;-91
2022/10/09 04:48:20;;;;;;;0.10;0.10;;;;;;;;;;6189789;23;20274;-90
2022/10/09 04:50:46;;;;;;;0.10;0.10;;;;;;;;;;6189476;23;20469;-90
2022/10/09 04:53:13;;;;;;;0.10;0.10;;;;;;;;;;6189356;23;20015;-90
2022/10/09 04:55:40;;;;;;;0.10;0.10;;;;;;;;;;6189479;23;20012;-90
2022/10/09 04:58:06;;;;;;;0.10;0.10;;;;;;;;;;6189091;23;20009;-91
2022/10/09 05:00:32;;;;;;;0.10;0.10;;;;;;;;;;6189028;23;20016;-90
2022/10/09 05:02:58;;;;;;;0.10;0.10;;;;;;;;;;6189708;23;20012;-91
2022/10/09 05:05:24;;;;;;;0.10;0.10;;;;;;;;;;6188836;23;20024;-90
2022/10/09 05:07:50;;;;;;;0.10;0.10;;;;;;;;;;6188940;23;20017;-89
2022/10/09 05:10:16;;;;;;;0.10;0.10;;;;;;;;;;6188726;23;20533;-89
2022/10/09 05:12:42;;;;;;;0.10;0.10;;;;;;;;;;6188681;23;20012;-89
2022/10/09 05:15:08;;;;;;;0.10;0.10;;;;;;;;;;6188274;23;20004;-89
2022/10/09 05:17:34;;;;;;;0.10;0.10;;;;;;;;;;6188925;23;20015;-89
2022/10/09 05:20:00;;;;;;;0.10;0.10;;;;;;;;;;6188798;23;20406;-89
2022/10/09 05:22:26;;;;;;;0.10;0.10;;;;;;;;;;6188949;23;20066;-89
2022/10/09 05:24:52;;;;;;;0.10;0.10;;;;;;;;;;6189086;23;20016;-89
2022/10/09 05:27:18;;;;;;;0.10;0.10;;;;;;;;;;6188208;23;20342;-90
2022/10/09 05:29:44;;;;;;;0.10;0.10;;;;;;;;;;6188679;23;20091;-89
2022/10/09 05:32:10;;;;;;;0.10;0.10;;;;;;;;;;6188404;23;20013;-89
2022/10/09 05:34:36;;;;;;;0.10;0.10;;;;;;;;;;6188650;23;20009;-89
2022/10/09 05:37:02;;;;;;;0.10;0.10;;;;;;;;;;6188847;23;20012;-89
2022/10/09 05:39:28;;;;;;;0.10;0.10;;;;;;;;;;6213712;23;20070;-89
2022/10/09 05:41:54;;;;;;;0.30;0.30;;;;;;;;;;6188617;23;20048;-89
2022/10/09 05:44:20;;;;;;;0.10;0.10;;;;;;;;;;6188705;23;20013;-89
2022/10/09 05:46:46;;;;;;;0.10;0.10;;;;;;;;;;6188319;23;20100;-89
2022/10/09 05:49:12;;;;;;;0.10;0.10;;;;;;;;;;6188649;23;20020;-89
2022/10/09 05:51:39;;;;;;;0.10;0.10;;;;;;;;;;6188387;23;20017;-89
2022/10/09 05:54:05;;;;;;;0.10;0.10;;;;;;;;;;6188427;23;20019;-88
2022/10/09 05:56:32;;;;;;;0.10;0.10;;;;;;;;;;6188789;23;20009;-89
2022/10/09 05:59:05;;;;;;;0.10;0.10;;;;;;;;;;6188531;23;20106;-89
2022/10/09 06:01:32;;;;;;;0.10;0.10;;;;;;;;;;6213315;23;20024;-89
2022/10/09 06:03:58;;;;;;;0.10;0.10;;;;;;;;;;6188602;23;20441;-89
2022/10/09 06:06:25;;;;;;;0.10;0.10;;;;;;;;;;6188473;23;20529;-90
2022/10/09 06:08:51;;;;;;;0.10;0.10;;;;;;;;;;6188463;23;20103;-90
2022/10/09 06:11:21;;;;;;;0.10;0.10;;;;;;;;;;6188219;23;20188;-89
2022/10/09 06:13:47;;;;;;;0.10;0.10;;;;;;;;;;6188375;23;20422;-89
2022/10/09 06:16:14;;;;;;;0.10;0.10;;;;;;;;;;6188380;23;20019;-89
2022/10/09 06:18:40;;;;;;;0.10;0.10;;;;;;;;;;6213293;23;20009;-89
2022/10/09 06:21:06;;;;;;;0.10;0.10;;;;;;;;;;6188261;23;20468;-89
2022/10/09 06:23:32;;;;;;;0.10;0.10;;;;;;;;;;6188124;23;20016;-88
2022/10/09 06:25:59;;;;;;;0.10;0.10;;;;;;;;;;6188395;23;20406;-89
2022/10/09 06:28:26;;;;;;;0.10;0.10;;;;;;;;;;6188337;23;20375;-90
2022/10/09 06:30:51;;;;;;;0.10;0.10;;;;;;;;;;6188030;23;20099;-89
2022/10/09 06:33:17;;;;;;;0.10;0.10;;;;;;;;;;6188153;23;20071;-89
2022/10/09 06:35:43;;;;;;;0.10;0.10;;;;;;;;;;6188476;23;20430;-90
2022/10/09 06:38:09;;;;;;;0.10;0.10;;;;;;;;;;6188135;23;20031;-90
2022/10/09 06:40:36;;;;;;;0.10;0.10;;;;;;;;;;6188216;23;20502;-90
2022/10/09 06:43:02;;;;;;;0.10;0.10;;;;;;;;;;6188574;23;20079;-90
2022/10/09 06:45:28;;;;;;;0.10;0.10;;;;;;;;;;6187265;23;20024;-90
2022/10/09 06:47:54;;;;;;;0.10;0.10;;;;;;;;;;6187957;23;20017;-90
2022/10/09 06:50:20;;;;;;;0.10;0.10;;;;;;;;;;6187789;23;20012;-89
2022/10/09 06:52:46;;;;;;;0.10;0.10;;;;;;;;;;6189682;23;20052;-91
2022/10/09 06:55:12;;;;;;;0.10;0.10;;;;;;;;;;6188462;23;20019;-89
2022/10/09 06:57:39;;;;;;;0.10;0.10;;;;;;;;;;6189021;23;20009;-92
2022/10/09 07:00:05;;;;;;;0.10;0.10;;;;;;;;;;6214365;23;20044;-92
2022/10/09 07:02:36;;;;;;;0.10;0.10;;;;;;;;;;6190554;23;20012;-92
2022/10/09 07:05:05;;;;;;;0.10;0.10;;;;;;;;;;6189635;23;20316;-92
2022/10/09 07:07:31;;;;;;;0.10;0.10;;;;;;;;;;6187958;23;20334;-93
2022/10/09 07:09:57;;;;;;;0.10;0.10;;;;;;;;;;6187745;23;20016;-90
2022/10/09 07:12:23;;;;;;;0.10;0.10;;;;;;;;;;6187589;23;20385;-90
2022/10/09 07:14:49;;;;;;;0.10;0.10;;;;;;;;;;6188122;23;20013;-92
2022/10/09 07:17:15;;;;;;;0.10;0.10;;;;;;;;;;6187889;23;20066;-93
2022/10/09 07:19:41;;;;;;;0.10;0.10;;;;;;;;;;6187642;23;20020;-92
2022/10/09 07:22:10;;;;;;;0.10;0.10;;;;;;;;;;6187963;23;20017;-91
2022/10/09 07:24:36;;;;;;;0.10;0.10;;;;;;;;;;6190378;23;20013;-92
2022/10/09 07:27:02;;;;;;;0.10;0.10;;;;;;;;;;6188958;23;20089;-92
2022/10/09 07:29:28;;;;;;;0.20;0.20;;;;;;;;;;6190446;23;20009;-94
2022/10/09 07:31:54;;;;;;;0.10;0.10;;;;;;;;;;6188394;23;20140;-95
2022/10/09 07:34:20;;;;;;;0.10;0.10;;;;;;;;;;6212575;23;20274;-90
2022/10/09 07:36:46;;;;;;;0.10;0.10;;;;;;;;;;6187720;23;20092;-89
2022/10/09 07:39:12;;;;;;;0.10;0.10;;;;;;;;;;6187510;23;20005;-88
2022/10/09 07:41:38;;;;;;;0.10;0.10;;;;;;;;;;6187740;23;20016;-89
2022/10/09 07:44:04;;;;;;;0.10;0.10;;;;;;;;;;6185525;23;20091;-91
2022/10/09 07:46:30;;;;;;;0.10;0.10;;;;;;;;;;6187187;23;20059;-92
2022/10/09 07:48:56;;;;;;;0.20;0.20;;;;;;;;;;6187174;23;20028;-93
2022/10/09 07:51:26;;;;;;;0.10;0.10;;;;;;;;;;6186854;23;20417;-92
2022/10/09 07:53:52;;;;;;;0.10;0.10;;;;;;;;;;6187561;23;20013;-92
2022/10/09 07:56:39;;;;;;;0.10;0.10;;;;;;;;;;6187726;23;20008;-95
2022/10/09 07:59:28;;;;;;;0.10;0.10;;;;;;;;;;6191308;23;20442;-93
2022/10/09 08:01:54;;;;;;;0.10;0.10;;;;;;;;;;6213431;23;20023;-94
2022/10/09 08:04:20;;;;;;;0.10;0.10;;;;;;;;;;6200358;23;20016;-94
2022/10/09 08:06:49;;;;;;;0.10;0.10;;;;;;;;;;6201267;23;20020;-95
2022/10/09 08:09:17;;;;;;;0.10;0.10;;;;;;;;;;6193805;23;20454;-95
2022/10/09 08:11:43;;;;;;;0.10;0.10;;;;;;;;;;6188121;23;20025;-92
2022/10/09 08:14:11;;;;;;;0.20;0.20;;;;;;;;;;6187642;23;20020;-93
2022/10/09 08:16:37;;;;;;;0.20;0.20;;;;;;;;;;6187701;23;20402;-93
2022/10/09 08:19:03;;;;;;;0.10;0.10;;;;;;;;;;6187356;23;20012;-92
2022/10/09 08:21:31;;;;;;;0.10;0.10;;;;;;;;;;6187075;23;20088;-92
2022/10/09 08:23:57;;;;;;;0.10;0.10;;;;;;;;;;6187930;23;20016;-91
2022/10/09 08:26:24;;;;;;;0.10;0.10;;;;;;;;;;6187122;23;20016;-93
2022/10/09 08:28:53;;;;;;;0.10;0.10;;;;;;;;;;6187342;23;20016;-91
2022/10/09 08:31:19;;;;;;;0.10;0.10;;;;;;;;;;6186857;23;20017;-91
2022/10/09 08:33:45;;;;;;;0.10;0.10;;;;;;;;;;6187757;23;20048;-93
2022/10/09 08:36:14;;;;;;;0.10;0.10;;;;;;;;;;6187218;23;20012;-92
2022/10/09 08:38:40;;;;;;;0.20;0.20;;;;;;;;;;6188279;23;20020;-92
2022/10/09 08:41:08;;;;;;;0.10;0.10;;;;;;;;;;6186867;23;20009;-92
2022/10/09 08:43:35;;;;;;;0.10;0.10;;;;;;;;;;6212037;23;20013;-92
2022/10/09 08:46:02;;;;;;;0.10;0.10;;;;;;;;;;6186913;23;20027;-92
2022/10/09 08:48:28;;;;;;;0.10;0.10;;;;;;;;;;6187157;23;20349;-92
2022/10/09 08:50:55;;;;;;;0.10;0.10;;;;;;;;;;6190199;23;20021;-94
2022/10/09 08:53:34;;;;;;;0.10;0.10;;;;;;;;;;6188981;23;20064;-89
2022/10/09 08:56:01;;;;;;;0.20;0.20;;;;;;;;;;6189549;23;20016;-91
2022/10/09 08:58:30;;;;;;;0.30;0.30;;;;;;;;;;6189753;23;20095;-90
2022/10/09 09:01:35;;;;;;;0.10;0.10;;;;;;;;;;6188568;23;20095;-94
2022/10/09 09:04:04;;;;;;;0.10;0.10;;;;;;;;;;6099775;23;20022;-93
2022/10/09 09:06:57;;;;;;;0.10;0.10;;;;;;;;;;6100430;23;20149;-94
2022/10/09 09:09:50;;;;;;;0.10;0.10;;;;;;;;;;6134546;23;20083;-96
2022/10/09 09:12:40;;;;;;;0.10;0.10;;;;;;;;;;6208834;23;20023;-95
2022/10/09 09:15:43;;;;;;;0.10;0.10;;;;;;;;;;6245563;23;20027;-96
2022/10/09 09:18:11;;;;;;;0.10;0.10;;;;;;;;;;6244395;23;20074;-96
2022/10/09 09:20:50;;;;;;;0.10;0.10;;;;;;;;;;6241544;23;20050;-96
2022/10/09 09:23:18;;;;;;;0.10;0.10;;;;;;;;;;6214885;23;20022;-95
2022/10/09 09:25:56;;;;;;;;;;;;;;;;;;;;;
2022/10/09 09:28:39;;;;;;;;;;;;;;;;;;;;;
2022/10/09 09:31:35;;;;;;;0.10;0.10;;;;;;;;;;6217756;23;20229;-95
2022/10/09 09:34:33;;;;;;;0.10;0.10;;;;;;;;;;6173660;23;20013;-96
2022/10/09 09:37:05;;;;;;;0.10;0.10;;;;;;;;;;6192667;23;20020;-96
2022/10/09 09:39:54;;;;;;;;;;;;;;;;;;6196408;23;20063;-92
2022/10/09 09:42:20;;;;;;;0.10;0.10;;;;;;;;;;6187472;23;20280;-93
2022/10/09 09:44:53;;;;;;;0.13;0.13;;;;;;;;;;6188413;23;20167;-92
2022/10/09 09:47:21;;;;;;;0.10;0.10;;;;;;;;;;6213334;23;20017;-92
2022/10/09 09:49:57;;;;;;;0.15;0.15;;;;;;;;;;6188516;23;20071;-93
2022/10/09 09:52:23;;;;;;;0.10;0.10;;;;;;;;;;6188188;23;20096;-93
2022/10/09 09:54:49;;;;;;;0.10;0.10;;;;;;;;;;6189846;23;20024;-93
2022/10/09 09:57:50;;;;;;;0.10;0.10;;;;;;;;;;6190278;23;20043;-96
2022/10/09 10:00:18;;;;;;;0.10;0.10;;;;;;;;;;6217882;23;20019;-91
2022/10/09 10:02:47;;;;;;;0.10;0.10;;;;;;;;;;6214107;23;20015;-93
2022/10/09 10:05:28;;;;;;;0.10;0.10;;;;;;;;;;6189306;23;20067;-93
2022/10/09 10:07:56;;;;;;;0.20;0.20;;;;;;;;;;6188665;23;20422;-92
2022/10/09 10:10:25;;;;;;;0.10;0.10;;;;;;;;;;6188760;23;20052;-90
2022/10/09 10:12:53;;;;;;;0.10;0.10;;;;;;;;;;6213275;23;20020;-93
2022/10/09 10:15:22;;;;;;;0.10;0.10;;;;;;;;;;6236380;23;20013;-87
2022/10/09 10:17:49;;;;;;;0.10;0.10;;;;;;;;;;6212976;23;20405;-90
2022/10/09 10:20:16;;;;;;;0.10;0.10;;;;;;;;;;6213403;23;20013;-89
2022/10/09 10:22:45;;;;;;;0.10;0.10;;;;;;;;;;6187895;23;20019;-90
2022/10/09 10:25:14;;;;;;;0.10;0.10;;;;;;;;;;6187899;23;20019;-90
2022/10/09 10:27:40;;;;;;;0.10;0.10;;;;;;;;;;6187914;23;20024;-90
2022/10/09 10:30:07;;;;;;;0.10;0.10;;;;;;;;;;6218207;23;20040;-90
2022/10/09 10:32:34;;;;;;;0.10;0.10;;;;;;;;;;6215025;23;20315;-90
2022/10/09 10:35:01;;;;;;;0.10;0.10;;;;;;;;;;6213242;23;20096;-89
2022/10/09 10:37:32;;;;;;;0.10;0.10;;;;;;;;;;6212922;23;20342;-88
2022/10/09 10:40:21;;;;;;;0.10;0.10;;;;;;;;;;6191051;23;20017;-91
2022/10/09 10:42:53;;;;;;;0.10;0.10;;;;;;;;;;6216301;23;20065;-90
2022/10/09 10:45:24;;;;;;;0.10;0.10;;;;;;;;;;6213258;23;20028;-90
2022/10/09 10:47:54;;;;;;;0.20;0.20;;;;;;;;;;6213673;23;20016;-90
2022/10/09 10:50:20;;;;;;;0.10;0.10;;;;;;;;;;6188337;23;20298;-90
2022/10/09 10:53:03;;;;;;;0.10;0.10;;;;;;;;;;6188419;23;20083;-91
2022/10/09 10:55:35;;;;;;;0.10;0.10;;;;;;;;;;6202153;23;20072;-89
2022/10/09 10:58:01;;;;;;;;;;;;;;;;;;6213597;23;20019;-90
2022/10/09 11:00:27;;;;;;;0.10;0.10;;;;;;;;;;6213712;23;19904;-90
2022/10/09 11:03:13;;;;;;;0.10;0.10;;;;;;;;;;6215132;23;20015;-91
2022/10/09 11:05:57;;;;;;;0.10;0.10;;;;;;;;;;6209268;23;20025;-91
2022/10/09 11:08:23;;;;;;;0.10;0.10;;;;;;;;;;6238403;23;20032;-91
2022/10/09 11:10:52;;;;;;;0.10;0.10;;;;;;;;;;6238531;23;20019;-91
2022/10/09 11:13:34;;;;;;;0.10;0.10;;;;;;;;;;6238779;23;20009;-95
2022/10/09 11:16:03;;;;;;;0.10;0.10;;;;;;;;;;6208330;23;20071;-93
2022/10/09 11:18:33;;;;;;;0.10;0.10;;;;;;;;;;6187694;23;20043;-91
2022/10/09 11:21:29;;;;;;;0.10;0.10;;;;;;;;;;6187359;23;20381;-91
2022/10/09 11:24:13;;;;;;;0.10;0.10;;;;;;;;;;6084744;23;20096;-92
2022/10/09 11:26:45;;;;;;;0.10;0.10;;;;;;;;;;6212208;23;20012;-92
2022/10/09 11:29:15;;;;;;;0.10;0.10;;;;;;;;;;6212727;23;20020;-92
2022/10/09 11:31:48;;;;;;;0.10;0.10;;;;;;;;;;6187531;23;20062;-91
2022/10/09 11:34:20;;;;;;;0.10;0.10;;;;;;;;;;6187631;23;20015;-91
2022/10/09 11:36:46;;;;;;;0.10;0.10;;;;;;;;;;6188164;23;20020;-91
2022/10/09 11:39:13;;;;;;;0.10;0.10;;;;;;;;;;6212368;23;20009;-92
2022/10/09 11:41:41;;;;;;;0.10;0.10;;;;;;;;;;6187223;23;20427;-91
2022/10/09 11:44:18;;;;;;;0.20;0.20;;;;;;;;;;6187780;23;20012;-92
2022/10/09 11:47:07;;;;;;;0.20;0.20;;;;;;;;;;6212925;23;20017;-92
2022/10/09 11:49:38;;;;;;;0.10;0.10;;;;;;;;;;6198031;23;20104;-92
2022/10/09 11:52:22;;;;;;;0.10;0.10;;;;;;;;;;6212109;23;20017;-93
2022/10/09 11:54:49;;;;;;;0.10;0.10;;;;;;;;;;6212849;23;20028;-92
2022/10/09 11:57:15;;;;;;;0.10;0.10;;;;;;;;;;6187804;23;20009;-93
2022/10/09 11:59:41;;;;;;;0.10;0.10;;;;;;;;;;6212122;23;20445;-92
2022/10/09 12:02:26;;;;;;;0.10;0.10;;;;;;;;;;6187048;23;20021;-92
2022/10/09 12:04:53;;;;;;;0.10;0.10;;;;;;;;;;6187853;23;20019;-92
2022/10/09 12:07:46;;;;;;;0.10;0.10;;;;;;;;;;6187530;23;20454;-92
2022/10/09 12:10:23;;;;;;;0.10;0.10;;;;;;;;;;6181861;23;20013;-90
2022/10/09 12:12:56;;;;;;;0.10;0.10;;;;;;;;;;6187375;23;20019;-90
2022/10/09 12:15:38;;;;;;;0.10;0.10;;;;;;;;;;6187292;23;20017;-91
2022/10/09 12:18:13;;;;;;;0.10;0.10;;;;;;;;;;6212533;23;20104;-90
2022/10/09 12:20:39;;;;;;;0.10;0.10;;;;;;;;;;6187515;23;20024;-90
2022/10/09 12:23:08;;;;;;;0.20;0.20;;;;;;;;;;6187588;23;20103;-90
2022/10/09 12:25:42;;;;;;;0.10;0.10;;;;;;;;;;6212962;23;20066;-89
2022/10/09 12:28:15;;;;;;;0.10;0.10;;;;;;;;;;6189103;23;20066;-92
2022/10/09 12:30:42;;;;;;;0.10;0.10;;;;;;;;;;6213880;23;20016;-91
2022/10/09 12:33:14;;;;;;;0.10;0.10;;;;;;;;;;6189228;23;20008;-92
2022/10/09 12:35:41;;;;;;;0.10;0.10;;;;;;;;;;6214507;23;20063;-91
2022/10/09 12:38:16;;;;;;;0.10;0.10;;;;;;;;;;6189657;23;20012;-91
2022/10/09 12:40:44;;;;;;;0.10;0.10;;;;;;;;;;6213901;23;20377;-90
2022/10/09 12:43:10;;;;;;;0.10;0.10;;;;;;;;;;6189111;23;20020;-91
2022/10/09 12:45:36;;;;;;;0.10;0.10;;;;;;;;;;6189699;23;20096;-93
2022/10/09 12:48:08;;;;;;;0.10;0.10;;;;;;;;;;6189500;23;20542;-87
2022/10/09 12:50:34;;;;;;;0.20;0.20;;;;;;;;;;6188835;23;20012;-92
2022/10/09 12:53:01;;;;;;;0.10;0.10;;;;;;;;;;6188928;23;20409;-90
2022/10/09 12:56:02;;;;;;;0.10;0.10;;;;;;;;;;6189093;23;20012;-96
2022/10/09 12:58:30;;;;;;;0.10;0.10;;;;;;;;;;6149447;23;20442;-95
2022/10/09 13:00:57;;;;;;;0.10;0.10;;;;;;;;;;6189052;23;20017;-90
2022/10/09 13:03:35;;;;;;;0.10;0.10;;;;;;;;;;6188832;23;20048;-91
2022/10/09 13:06:08;;;;;;;0.20;0.20;;;;;;;;;;6214176;23;20016;-91
2022/10/09 13:08:36;;;;;;;0.10;0.10;;;;;;;;;;6189357;23;20078;-90
2022/10/09 13:11:17;;;;;;;0.10;0.10;;;;;;;;;;6188461;23;20039;-90
2022/10/09 13:13:47;;;;;;;0.10;0.10;;;;;;;;;;6188364;23;20024;-91
2022/10/09 13:16:14;;;;;;;0.10;0.10;;;;;;;;;;6188866;23;20040;-93
2022/10/09 13:18:41;;;;;;;0.10;0.10;;;;;;;;;;6213311;23;20013;-94
2022/10/09 13:21:21;;;;;;;0.10;0.10;;;;;;;;;;6189027;23;20445;-92
2022/10/09 13:23:48;;;;;;;0.10;0.10;;;;;;;;;;6214879;23;20063;-93
2022/10/09 13:26:24;;;;;;;0.10;0.10;;;;;;;;;;6189379;23;20013;-94
2022/10/09 13:28:50;;;;;;;0.10;0.10;;;;;;;;;;6189901;23;20075;-92
2022/10/09 13:31:17;;;;;;;0.10;0.10;;;;;;;;;;6214076;23;20307;-90
2022/10/09 13:33:44;;;;;;;0.10;0.10;;;;;;;;;;6189137;23;20342;-91
2022/10/09 13:36:11;;;;;;;0.10;0.10;;;;;;;;;;6188237;23;20020;-89
2022/10/09 13:38:37;;;;;;;0.10;0.10;;;;;;;;;;6213538;23;20461;-90
2022/10/09 13:41:03;;;;;;;0.10;0.10;;;;;;;;;;6187967;23;20099;-92
2022/10/09 13:43:30;;;;;;;0.10;0.10;;;;;;;;;;6213782;23;20028;-91
2022/10/09 13:45:56;;;;;;;0.10;0.10;;;;;;;;;;6188393;23;20012;-91
2022/10/09 13:48:24;;;;;;;0.10;0.10;;;;;;;;;;6213450;23;20024;-92
2022/10/09 13:50:50;;;;;;;0.10;0.10;;;;;;;;;;6188932;23;20016;-91
2022/10/09 13:53:16;;;;;;;0.10;0.10;;;;;;;;;;6188217;23;20472;-92
2022/10/09 13:55:43;;;;;;;0.10;0.10;;;;;;;;;;6188859;23;20013;-91
2022/10/09 13:58:10;;;;;;;0.10;0.10;;;;;;;;;;6188621;23;20013;-91
2022/10/09 14:00:36;;;;;;;0.10;0.10;;;;;;;;;;6188528;23;20088;-92
2022/10/09 14:03:03;;;;;;;0.10;0.10;;;;;;;;;;6188331;23;20016;-92
2022/10/09 14:05:29;;;;;;;0.10;0.10;;;;;;;;;;6213472;23;20338;-91
2022/10/09 14:07:55;;;;;;;0.10;0.10;;;;;;;;;;6188456;23;20023;-92
2022/10/09 14:10:22;;;;;;;0.05;0.05;;;;;;;;;;6213287;23;20152;-92
2022/10/09 14:12:49;;;;;;;0.30;0.30;;;;;;;;;;6213770;23;20492;-89
2022/10/09 14:15:16;;;;;;;0.10;0.10;;;;;;;;;;6214558;23;20074;-92
2022/10/09 14:17:44;;;;;;;0.10;0.10;;;;;;;;;;6189846;23;20009;-93
2022/10/09 14:20:12;;;;;;;0.10;0.10;;;;;;;;;;6237150;23;20589;-92
2022/10/09 14:22:39;;;;;;;0.10;0.10;;;;;;;;;;6189918;23;20016;-92
2022/10/09 14:25:05;;;;;;;0.10;0.10;;;;;;;;;;6213966;23;20087;-92
2022/10/09 14:27:32;;;;;;;0.10;0.10;;;;;;;;;;6188314;23;20012;-91
2022/10/09 14:30:02;;;;;;;0.10;0.10;;;;;;;;;;6189218;23;20150;-92
2022/10/09 14:32:28;;;;;;;0.10;0.10;;;;;;;;;;6213453;23;20012;-92
2022/10/09 14:34:55;;;;;;;0.28;0.20;;;;;;;;;;6188175;23;20139;-91
2022/10/09 14:37:21;;;;;;;0.10;0.10;;;;;;;;;;6188188;23;20382;-91
2022/10/09 14:39:49;;;;;;;0.10;0.10;;;;;;;;;;6188468;23;20013;-92
2022/10/09 14:42:15;;;;;;;0.10;0.10;;;;;;;;;;6187662;23;20016;-92
2022/10/09 14:44:42;;;;;;;0.10;0.10;;;;;;;;;;6212785;23;20393;-91
2022/10/09 14:47:08;;;;;;;0.10;0.10;;;;;;;;;;6212689;23;20012;-92
2022/10/09 14:49:34;;;;;;;0.10;0.10;;;;;;;;;;6188573;23;20070;-92
2022/10/09 14:52:00;;;;;;;0.10;0.10;;;;;;;;;;6187709;23;20350;-91
2022/10/09 14:54:26;;;;;;;0.10;0.10;;;;;;;;;;6188376;23;20083;-90
2022/10/09 14:56:52;;;;;;;0.10;0.10;;;;;;;;;;6213586;23;20044;-90
2022/10/09 14:59:18;;;;;;;0.10;0.10;;;;;;;;;;6188260;23;20013;-92